PACV METAR and TAF weather

Enter ICAO airport designator
Station Type Date Time Source
PACV METAR 2019/08/19 07:53 UTC NOAA

PACV 190753Z 02004KT 10SM CLR 13/M02 A2992 RMK AO2 SLP132 T01281017


Station Type Date Time Source
PACV Decoded METAR 2019/08/19 07:53 UTC NOAA

Station name not available
Aug 19, 2019 - 03:53 AM EDT / 2019.08.19 0753 UTC
Wind: from the NNE (020 degrees) at 5 MPH (4 KT):0
Visibility: 10 mile(s):0
Sky conditions: clear
Temperature: 55.0 F (12.8 C)
Dew Point: 28.9 F (-1.7 C)
Relative Humidity: 36%
Pressure (altimeter): 29.92 in. Hg (1013 hPa)
ob: PACV 190753Z 02004KT 10SM CLR 13/M02 A2992 RMK AO2 SLP132 T01281017
cycle: 8

Station Type Date Time Source
PACV TAF 2019/08/19 06:24 UTC NOAA

TAF PACV 190521Z 1906/2006 VRB04KT P6SM SKC

Example: see airport list